Track Прокофьев Димитрий

Time Latitude Longitude Accuracy (66% radius in meters) Altitude (meters) Speed (km/hour) Bearing (degrees) Battery (%) GPS flag
11:51:00 57.204390 60.121060 9 316 0 0 27 1 delete
11:50:50 57.204394 60.121066 10 317 0 0 27 1 delete
11:50:40 57.204398 60.121075 5 317 0 0 27 1 delete
11:50:39 57.204398 60.121074 5 317 0 0 27 1 delete
11:50:31 57.204470 60.120956 10 318 0.85000002384186 111.5 27 1 delete
11:50:29 57.204486 60.120908 11 316 0 0 27 1 delete
11:50:19 57.204513 60.120902 7 314 0 0 27 1 delete
11:50:08 57.204559 60.120890 6 320 0 0 27 1 delete
11:49:58 57.204560 60.120884 5 321 0 0 27 1 delete
11:49:46 57.204540 60.120894 3 323 0.88999998569489 12.89999961853 27 1 delete
11:49:29 57.204558 60.120872 3 322 0 0 27 1 delete
11:49:18 57.204579 60.120926 3 325 0.76999998092651 24.10000038147 27 1 delete
11:49:12 57.204538 60.120819 3 324 4.9000000953674 49.700000762939 27 1 delete
11:49:10 57.204497 60.120637 3 326 5.7699999809265 60.299999237061 27 1 delete
11:49:08 57.204456 60.120461 3 326 5.1999998092651 83.300003051758 27 1 delete
11:49:06 57.204448 60.120295 3 327 6.039999961853 101.19999694824 27 1 delete
11:49:04 57.204459 60.120084 3 326 5.8600001335144 71.900001525879 27 1 delete
11:49:02 57.204419 60.119891 4 327 5.4000000953674 50.099998474121 27 1 delete
11:49:00 57.204350 60.119726 4 327 5.2399997711182 47.299999237061 27 1 delete
11:48:58 57.204280 60.119575 3 325 5.1900000572205 44.400001525879 27 1 delete
11:48:56 57.204207 60.119434 3 325 5.3099999427795 62.700000762939 27 1 delete
11:48:54 57.204140 60.119232 3 327 3.3800001144409 35.5 27 1 delete
11:48:51 57.204068 60.119117 3 327 3.6199998855591 42.900001525879 27 1 delete
11:48:48 57.203994 60.118961 3 324 3.039999961853 42.299999237061 27 1 delete
11:48:47 57.203976 60.118923 3 323 1.8799999952316 43.099998474121 27 1 delete
11:48:42 57.203919 60.118858 3 319 2.4500000476837 29.200000762939 27 1 delete
11:48:38 57.203829 60.118737 3 319 2.0299999713898 19.799999237061 27 1 delete
11:48:37 57.203813 60.118707 3 320 2.1900000572205 54.299999237061 27 1 delete
11:48:30 57.203828 60.118554 3 320 1.9099999666214 132.60000610352 27 1 delete
11:48:26 57.203898 60.118426 3 319 3.7799999713898 134.60000610352 27 1 delete
11:48:23 57.203958 60.118293 3 319 2.7300000190735 103.30000305176 27 1 delete
11:48:16 57.203991 60.118138 3 318 2.7000000476837 134.30000305176 27 1 delete
11:48:12 57.204063 60.118011 3 314 2.460000038147 145.10000610352 27 1 delete
11:48:08 57.204152 60.117889 3 316 3.5099999904633 140.30000305176 27 1 delete
11:48:06 57.204194 60.117811 3 316 3.0499999523163 122.69999694824 27 1 delete
11:48:04 57.204227 60.117722 3 315 3.460000038147 137.80000305176 27 1 delete
11:48:01 57.204307 60.117598 3 315 3.2599999904633 141.89999389648 27 1 delete
11:47:58 57.204381 60.117495 3 313 3.4400000572205 162.39999389648 27 1 delete
11:47:56 57.204442 60.117460 3 313 3.7699999809265 165.80000305176 27 1 delete
11:47:55 57.204481 60.117445 3 315 4.5300002098083 170.19999694824 27 1 delete
11:47:53 57.204575 60.117428 3 316 4.1300001144409 173.80000305176 27 1 delete
11:47:50 57.204702 60.117427 3 317 4.0700001716614 183.30000305176 27 1 delete
11:47:47 57.204811 60.117435 3 320 3.4400000572205 178.69999694824 27 1 delete
11:47:45 57.204866 60.117427 3 320 2.0999999046326 172.5 27 1 delete
11:47:40 57.204913 60.117359 3 323 0.37000000476837 55 27 1 delete
11:47:34 57.204891 60.117286 3 321 0.34999999403954 60.099998474121 27 1 delete
11:47:31 57.204875 60.117200 3 320 1.9900000095367 45.799999237061 27 1 delete
11:47:26 57.204811 60.117053 3 317 0.85000002384186 70.400001525879 27 1 delete
11:47:24 57.204788 60.117028 3 318 1.3999999761581 70.199996948242 27 1 delete
11:47:19 57.204747 60.116925 3 319 2.5799999237061 49.299999237061 27 1 delete